Time;durP1;ratioP1;P1;durP2;ratioP2;P2;SDS_P1;SDS_P2;PMS_P1;PMS_P2;Temp;Humidity;BMP_temperature;BMP_pressure;BME280_temperature;BME280_humidity;BME280_pressure;Samples;Min_cycle;Max_cycle;Signal;HPM_P1;HPM_P2
2021/12/28 00:02:09;;;;;;;;;;;;;;;;;;5068144;28;19931;-76
2021/12/28 00:04:36;;;;;;;;;;;;;;;;;;5072760;28;19924;-77
2021/12/28 00:07:03;;;;;;;;;;;;;;;;;;5072671;28;19924;-76
2021/12/28 00:09:30;;;;;;;;;;;;;;;;;;5072169;28;19924;-77
2021/12/28 00:11:57;;;;;;;;;;;;;;;;;;5072340;28;19935;-77
2021/12/28 00:14:33;;;;;;;;;;;;;;;;;;5072348;28;19929;-78
2021/12/28 00:19:45;;;;;;;;;;;;;;;;;;5072077;28;20050;-75
2021/12/28 00:22:12;;;;;;;;;;;;;;;;;;5072690;28;20261;-76
2021/12/28 00:24:39;;;;;;;;;;;;;;;;;;5072545;28;20315;-76
2021/12/28 00:27:06;;;;;;;;;;;;;;;;;;5072637;28;19949;-76
2021/12/28 00:29:33;;;;;;;;;;;;;;;;;;5072561;28;19954;-76
2021/12/28 00:32:00;;;;;;;;;;;;;;;;;;5071816;28;20011;-76
2021/12/28 00:34:27;;;;;;;;;;;;;;;;;;5072748;28;19925;-77
2021/12/28 00:36:56;;;;;;;;;;;;;;;;;;5071968;28;19928;-76
2021/12/28 00:39:23;;;;;;;;;;;;;;;;;;5072121;28;20389;-73
2021/12/28 00:41:50;;;;;;;;;;;;;;;;;;5071663;28;20483;-76
2021/12/28 00:44:17;;;;;;;;;;;;;;;;;;5072130;28;20304;-75
2021/12/28 00:46:44;;;;;;;;;;;;;;;;;;5071959;28;19975;-76
2021/12/28 00:49:11;;;;;;;;;;;;;;;;;;5071684;28;19925;-76
2021/12/28 00:51:38;;;;;;;;;;;;;;;;;;5071911;28;19924;-75
2021/12/28 00:54:05;;;;;;;;;;;;;;;;;;5072028;28;20305;-77
2021/12/28 00:56:32;;;;;;;;;;;;;;;;;;5071971;28;20321;-75
2021/12/28 00:58:59;;;;;;;;;;;;;;;;;;5071471;28;19924;-75
2021/12/28 01:01:26;;;;;;;;;;;;;;;;;;5071549;28;20321;-75
2021/12/28 01:03:53;;;;;;;;;;;;;;;;;;5071878;28;19940;-75
2021/12/28 01:06:19;;;;;;;;;;;;;;;;;;5071852;28;19925;-76
2021/12/28 01:08:46;;;;;;;;;;;;;;;;;;5071824;28;19932;-76
2021/12/28 01:11:13;;;;;;;;;;;;;;;;;;5071291;28;20404;-76
2021/12/28 01:13:40;;;;;;;;;;;;;;;;;;5071472;28;19932;-75
2021/12/28 01:16:08;;;;;;;;;;;;;;;;;;5071372;28;19931;-76
2021/12/28 01:18:35;;;;;;;;;;;;;;;;;;5071686;28;20313;-75
2021/12/28 01:21:02;;;;;;;;;;;;;;;;;;5070855;28;19930;-76
2021/12/28 01:23:29;;;;;;;;;;;;;;;;;;5060169;28;20286;-75
2021/12/28 01:25:56;;;;;;;;;;;;;;;;;;5071602;28;20019;-76
2021/12/28 01:28:23;;;;;;;;;;;;;;;;;;5071420;28;19924;-75
2021/12/28 01:30:50;;;;;;;;;;;;;;;;;;5070983;28;19924;-75
2021/12/28 01:33:17;;;;;;;;;;;;;;;;;;5071579;28;19924;-75
2021/12/28 01:35:44;;;;;;;;;;;;;;;;;;5071511;28;19925;-76
2021/12/28 01:38:13;;;;;;;;;;;;;;;;;;5071326;28;19925;-76
2021/12/28 01:40:40;;;;;;;;;;;;;;;;;;5070958;28;19932;-76
2021/12/28 01:43:08;;;;;;;;;;;;;;;;;;5071216;28;20373;-73
2021/12/28 01:45:35;;;;;;;;;;;;;;;;;;5071501;28;19924;-76
2021/12/28 01:48:02;;;;;;;;;;;;;;;;;;5071478;28;19932;-75
2021/12/28 01:50:29;;;;;;;;;;;;;;;;;;5070717;28;19924;-76
2021/12/28 01:52:56;;;;;;;;;;;;;;;;;;5071221;28;20022;-75
2021/12/28 01:55:23;;;;;;;;;;;;;;;;;;5071192;28;20404;-75
2021/12/28 01:57:50;;;;;;;;;;;;;;;;;;5073276;28;19946;-75
2021/12/28 02:00:17;;;;;;;;;;;;;;;;;;5074849;28;19925;-76
2021/12/28 02:02:44;;;;;;;;;;;;;;;;;;5075110;28;19924;-76
2021/12/28 02:05:11;;;;;;;;;;;;;;;;;;5074939;28;19925;-75
2021/12/28 02:07:38;;;;;;;;;;;;;;;;;;5075156;28;19960;-75
2021/12/28 02:10:05;;;;;;;;;;;;;;;;;;5075237;28;19928;-76
2021/12/28 02:12:32;;;;;;;;;;;;;;;;;;5074407;28;20294;-74
2021/12/28 02:15:05;;;;;;;;;;;;;;;;;;5075074;28;19924;-76
2021/12/28 02:17:32;;;;;;;;;;;;;;;;;;5075102;28;19924;-74
2021/12/28 02:19:59;;;;;;;;;;;;;;;;;;5074316;28;19947;-75
2021/12/28 02:22:26;;;;;;;;;;;;;;;;;;5074540;28;19925;-75
2021/12/28 02:24:53;;;;;;;;;;;;;;;;;;5074735;28;19925;-75
2021/12/28 02:27:20;;;;;;;;;;;;;;;;;;5074947;28;19924;-75
2021/12/28 02:29:47;;;;;;;;;;;;;;;;;;5074380;28;19990;-76
2021/12/28 02:32:14;;;;;;;;;;;;;;;;;;5074561;28;20326;-77
2021/12/28 02:34:41;;;;;;;;;;;;;;;;;;5074512;28;19924;-77
2021/12/28 02:37:08;;;;;;;;;;;;;;;;;;5069716;28;19932;-78
2021/12/28 02:39:35;;;;;;;;;;;;;;;;;;5064391;28;19929;-77
2021/12/28 02:42:02;;;;;;;;;;;;;;;;;;5074317;28;19924;-78
2021/12/28 02:44:29;;;;;;;;;;;;;;;;;;5074456;28;19924;-79
2021/12/28 02:46:56;;;;;;;;;;;;;;;;;;5074129;28;19925;-78
2021/12/28 02:49:22;;;;;;;;;;;;;;;;;;5074309;28;19924;-78
2021/12/28 02:51:49;;;;;;;;;;;;;;;;;;5073950;28;19924;-78
2021/12/28 02:54:16;;;;;;;;;;;;;;;;;;5074126;28;19924;-78
2021/12/28 02:56:43;;;;;;;;;;;;;;;;;;5074136;28;19931;-77
2021/12/28 02:59:10;;;;;;;;;;;;;;;;;;5074029;28;19925;-79
2021/12/28 03:01:40;;;;;;;;;;;;;;;;;;5073607;28;20030;-77
2021/12/28 03:04:08;;;;;;;;;;;;;;;;;;5074171;28;19931;-78
2021/12/28 03:06:35;;;;;;;;;;;;;;;;;;5074404;28;20274;-77
2021/12/28 03:09:01;;;;;;;;;;;;;;;;;;5072570;28;19928;-77
2021/12/28 03:11:28;;;;;;;;;;;;;;;;;;5073736;28;20267;-78
2021/12/28 03:13:55;;;;;;;;;;;;;;;;;;5073709;28;19931;-76
2021/12/28 03:16:22;;;;;;;;;;;;;;;;;;5073820;28;19924;-76
2021/12/28 03:18:49;;;;;;;;;;;;;;;;;;5068741;28;20322;-76
2021/12/28 03:21:18;;;;;;;;;;;8.50;99.90;;;;;;5073148;28;20475;-77
2021/12/28 03:23:45;;;;;;;;;;;8.50;99.90;;;;;;5073544;28;20303;-77
2021/12/28 03:26:13;;;;;;;;;;;8.50;99.90;;;;;;5073991;28;20159;-77
2021/12/28 03:28:40;;;;;;;;;;;8.50;99.90;;;;;;5069341;28;19931;-78
2021/12/28 03:31:08;;;;;;;;;;;8.50;99.90;;;;;;5073210;28;19924;-76
2021/12/28 03:33:35;;;;;;;;;;;8.60;99.90;;;;;;5073238;28;19935;-77
2021/12/28 03:36:03;;;;;;;;;;;8.50;99.90;;;;;;5073358;28;19931;-76
2021/12/28 03:38:30;;;;;;;;;;;8.50;99.90;;;;;;5068546;28;19931;-77
2021/12/28 03:40:57;;;;;;;;;;;8.50;99.90;;;;;;5072790;28;19925;-76
2021/12/28 03:43:24;;;;;;;;;;;8.50;99.90;;;;;;5073466;28;19932;-76
2021/12/28 03:45:51;;;;;;;;;;;8.50;99.90;;;;;;5073190;28;19928;-75
2021/12/28 03:48:17;;;;;;;;;;;8.60;99.90;;;;;;5072977;28;19924;-76
2021/12/28 03:50:44;;;;;;;;;;;8.70;99.90;;;;;;5073124;28;19924;-75
2021/12/28 03:53:11;;;;;;;;;;;8.60;99.90;;;;;;5069925;28;20046;-75
2021/12/28 03:55:39;;;;;;;;;;;8.60;99.90;;;;;;5073170;28;20050;-76
2021/12/28 03:58:06;;;;;;;;;;;8.60;99.90;;;;;;5072754;28;19924;-77
2021/12/28 04:00:34;;;;;;;;;;;8.70;99.90;;;;;;5072626;28;19925;-77
2021/12/28 04:03:01;;;;;;;;;;;8.70;99.90;;;;;;5072625;28;19932;-76
2021/12/28 04:05:27;;;;;;;;;;;8.70;99.90;;;;;;5073140;28;19925;-76
2021/12/28 04:07:54;;;;;;;;;;;8.70;99.90;;;;;;5072842;28;20540;-76
2021/12/28 04:10:29;;;;;;;;;;;8.80;99.90;;;;;;5072291;28;19931;-77
2021/12/28 04:12:57;;;;;;;;;;;8.80;99.90;;;;;;5072677;28;19971;-76
2021/12/28 04:15:23;;;;;;;;;;;8.80;99.90;;;;;;5072110;28;19924;-77
2021/12/28 04:17:50;;;;;;;;;;;8.80;99.90;;;;;;5072930;28;19931;-75
2021/12/28 04:20:18;;;;;;;;;;;8.80;99.90;;;;;;5071488;28;20300;-77
2021/12/28 04:22:45;;;;;;;;;;;8.80;99.90;;;;;;5072547;28;19936;-77
2021/12/28 04:25:12;;;;;;;;;;;8.90;99.90;;;;;;5072234;28;19931;-76
2021/12/28 04:27:39;;;;;;;;;;;8.80;99.90;;;;;;5072285;28;19932;-77
2021/12/28 04:30:08;;;;;;;;;;;8.80;99.90;;;;;;5071838;28;19967;-77
2021/12/28 04:32:35;;;;;;;;;;;8.90;99.90;;;;;;5072350;28;19924;-77
2021/12/28 04:35:02;;;;;;;;;;;8.90;99.90;;;;;;5072579;28;19924;-76
2021/12/28 04:37:28;;;;;;;;;;;8.90;99.90;;;;;;5067292;28;19924;-77
2021/12/28 04:39:55;;;;;;;;;;;8.80;99.90;;;;;;5071786;28;19935;-79
2021/12/28 04:42:24;;;;;;;;;;;8.80;99.90;;;;;;5071774;28;19932;-77
2021/12/28 04:44:51;;;;;;;;;;;8.80;99.90;;;;;;5072231;28;19933;-78
2021/12/28 04:47:18;;;;;;;;;;;8.80;99.90;;;;;;5072139;28;19931;-76
2021/12/28 04:49:46;;;;;;;;;;;8.80;99.90;;;;;;5071572;28;19928;-76
2021/12/28 04:52:12;;;;;;;;;;;8.80;99.90;;;;;;5072326;28;19931;-75
2021/12/28 04:54:39;;;;;;;;;;;8.80;99.90;;;;;;5071721;28;19932;-75
2021/12/28 04:57:06;;;;;;;;;;;8.80;99.90;;;;;;5071834;28;20309;-76
2021/12/28 04:59:35;;;;;;;;;;;8.80;99.90;;;;;;5070891;28;20280;-75
2021/12/28 05:02:02;;;;;;;;;;;8.80;99.90;;;;;;5072134;28;19925;-75
2021/12/28 05:04:29;;;;;;;;;;;8.80;99.90;;;;;;5071917;28;20019;-77
2021/12/28 05:06:56;;;;;;;;;;;8.80;99.90;;;;;;5071765;28;19931;-75
2021/12/28 05:09:23;;;;;;;;;;;8.90;99.90;;;;;;5071592;28;19924;-77
2021/12/28 05:11:50;;;;;;;;;;;8.80;99.90;;;;;;5071140;28;19924;-76
2021/12/28 05:14:18;;;;;;;;;;;8.80;99.90;;;;;;5071598;28;19932;-76
2021/12/28 05:16:44;;;;;;;;;;;8.90;99.90;;;;;;5071088;28;19928;-76
2021/12/28 05:19:11;;;;;;;;;;;8.90;99.90;;;;;;5071358;28;20302;-77
2021/12/28 05:21:39;;;;;;;;;;;8.80;99.90;;;;;;5071316;28;19978;-77
2021/12/28 05:24:06;;;;;;;;;;;8.90;99.90;;;;;;5071729;28;20309;-77
2021/12/28 05:26:33;;;;;;;;;;;8.80;99.90;;;;;;5071213;28;19931;-77
2021/12/28 05:29:00;;;;;;;;;;;8.90;99.90;;;;;;5071113;28;19982;-72
2021/12/28 05:31:28;;;;;;;;;;;8.80;99.90;;;;;;5070444;28;20003;-76
2021/12/28 05:33:55;;;;;;;;;;;8.80;99.90;;;;;;5071590;28;20015;-77
2021/12/28 05:36:24;;;;;;;;;;;8.90;99.90;;;;;;5071613;28;20019;-78
2021/12/28 05:38:52;;;;;;;;;;;8.90;99.90;;;;;;5071146;28;20011;-76
2021/12/28 05:41:19;;;;;;;;;;;8.80;99.90;;;;;;5071061;28;19925;-77
2021/12/28 05:43:45;;;;;;;;;;;8.80;99.90;;;;;;5071147;28;19924;-77
2021/12/28 05:46:12;;;;;;;;;;;8.80;99.90;;;;;;5071504;28;19928;-76
2021/12/28 05:48:39;;;;;;;;;;;8.80;99.90;;;;;;5071293;28;19924;-77
2021/12/28 05:51:05;;;;;;;;;;;8.90;99.90;;;;;;5071052;28;19924;-73
2021/12/28 05:53:32;;;;;;;;;;;8.90;99.90;;;;;;5071118;28;19931;-77
2021/12/28 05:56:00;;;;;;;;;;;8.90;99.90;;;;;;5071038;28;19925;-77
2021/12/28 05:58:27;;;;;;;;;;;8.90;99.90;;;;;;5071410;28;20365;-77
2021/12/28 06:00:53;;;;;;;;;;;8.90;99.90;;;;;;5070768;28;20123;-76
2021/12/28 06:03:20;;;;;;;;;;;8.90;99.90;;;;;;5071134;28;19931;-77
2021/12/28 06:05:46;;;;;;;;;;;8.90;99.90;;;;;;5071175;28;19925;-77
2021/12/28 06:08:13;;;;;;;;;;;8.90;99.90;;;;;;5071125;28;19987;-76
2021/12/28 06:10:40;;;;;;;;;;;8.80;99.90;;;;;;5071044;28;19924;-74
2021/12/28 06:13:08;;;;;;;;;;;8.80;99.90;;;;;;5070809;28;20386;-76
2021/12/28 06:15:35;;;;;;;;;;;8.80;99.90;;;;;;5071115;28;19929;-77
2021/12/28 06:18:02;;;;;;;;;;;8.80;99.90;;;;;;5071069;28;19930;-77
2021/12/28 06:20:28;;;;;;;;;;;8.80;99.90;;;;;;5070558;28;19931;-75
2021/12/28 06:22:55;;;;;;;;;;;8.80;99.90;;;;;;5066902;28;20336;-76
2021/12/28 06:25:22;;;;;;;;;;;8.90;99.90;;;;;;5071034;28;19925;-76
2021/12/28 06:27:48;;;;;;;;;;;8.90;99.90;;;;;;5070692;28;20015;-77
2021/12/28 06:30:17;;;;;;;;;;;8.80;99.90;;;;;;5070592;28;19928;-76
2021/12/28 06:32:43;;;;;;;;;;;8.80;99.90;;;;;;5071035;28;19971;-76
2021/12/28 06:35:10;;;;;;;;;;;8.80;99.90;;;;;;5070798;28;19925;-77
2021/12/28 06:37:37;;;;;;;;;;;8.80;99.90;;;;;;5070842;28;20290;-76
2021/12/28 06:40:04;;;;;;;;;;;8.80;99.90;;;;;;5070191;28;19950;-76
2021/12/28 06:42:31;;;;;;;;;;;8.80;99.90;;;;;;5070860;28;20039;-75
2021/12/28 06:44:57;;;;;;;;;;;8.80;99.90;;;;;;5074487;28;19931;-76
2021/12/28 06:47:25;;;;;;;;;;;8.70;99.90;;;;;;5074639;28;19930;-75
2021/12/28 06:49:52;;;;;;;;;;;8.80;99.90;;;;;;5063023;28;19925;-75
2021/12/28 06:52:19;;;;;;;;;;;8.80;99.90;;;;;;5074323;28;20279;-76
2021/12/28 06:54:45;;;;;;;;;;;8.70;99.90;;;;;;5074006;28;20366;-76
2021/12/28 06:57:12;;;;;;;;;;;8.70;99.90;;;;;;5074362;28;20007;-76
2021/12/28 06:59:43;;;;;;;;;;;8.70;99.90;;;;;;5074012;28;19947;-75
2021/12/28 07:02:10;;;;;;;;;;;8.70;99.90;;;;;;5073756;28;19924;-71
2021/12/28 07:04:38;;;;;;;;;;;8.70;99.90;;;;;;5074237;28;20292;-76
2021/12/28 07:07:05;;;;;;;;;;;8.70;99.90;;;;;;5073766;28;20020;-72
2021/12/28 07:09:32;;;;;;;;;;;8.70;99.90;;;;;;5063063;28;19924;-76
2021/12/28 07:11:58;;;;;;;;;;;8.70;99.90;;;;;;5074003;28;19924;-75
2021/12/28 07:14:25;;;;;;;;;;;8.70;99.90;;;;;;5073407;28;19928;-73
2021/12/28 07:16:52;;;;;;;;;;;8.60;99.90;;;;;;5073963;28;20007;-76
2021/12/28 07:19:18;;;;;;;;;;;8.60;99.90;;;;;;5073479;28;19924;-76
2021/12/28 07:21:46;;;;;;;;;;;8.50;99.90;;;;;;5073252;28;20011;-77
2021/12/28 07:24:13;;;;;;;;;;;8.40;99.90;;;;;;5073799;28;19958;-75
2021/12/28 07:26:40;;;;;;;;;;;8.50;99.90;;;;;;5073828;28;19932;-76
2021/12/28 07:29:07;;;;;;;;;;;8.50;99.90;;;;;;5072996;28;19936;-76
2021/12/28 07:31:34;;;;;;;;;;;8.50;99.90;;;;;;5073372;28;19925;-76
2021/12/28 07:34:00;;;;;;;;;;;8.40;99.90;;;;;;5073342;28;20356;-76
2021/12/28 07:36:27;;;;;;;;;;;8.30;99.90;;;;;;5067514;28;20417;-76
2021/12/28 07:38:55;;;;;;;;;;;8.30;99.90;;;;;;5070595;28;19924;-77
2021/12/28 07:41:22;;;;;;;;;;;8.30;99.90;;;;;;5073116;28;20290;-75
2021/12/28 07:43:49;;;;;;;;;;;8.40;99.90;;;;;;5073302;28;20378;-75
2021/12/28 07:46:16;;;;;;;;;;;8.40;99.90;;;;;;5073068;28;19928;-75
2021/12/28 07:48:42;;;;;;;;;;;8.40;99.90;;;;;;5073300;28;19982;-75
2021/12/28 07:51:10;;;;;;;;;;;8.50;99.90;;;;;;5072996;28;20015;-74
2021/12/28 07:53:36;;;;;;;;;;;8.40;99.90;;;;;;5073427;28;19931;-76
2021/12/28 07:56:05;;;;;;;;;;;8.40;99.90;;;;;;5072075;28;19971;-75
2021/12/28 07:58:31;;;;;;;;;;;8.50;99.90;;;;;;5072717;28;19924;-74
2021/12/28 08:00:58;;;;;;;;;;;8.60;99.90;;;;;;5072640;28;19939;-75
2021/12/28 08:03:25;;;;;;;;;;;8.80;99.90;;;;;;5072798;28;19925;-77
2021/12/28 08:05:52;;;;;;;;;;;8.70;99.90;;;;;;5073102;28;19936;-73
2021/12/28 08:08:19;;;;;;;;;;;8.70;99.90;;;;;;5072653;28;19924;-74
2021/12/28 08:10:46;;;;;;;;;;;8.70;99.90;;;;;;5072208;28;19928;-76
2021/12/28 08:13:16;;;;;;;;;;;8.60;99.90;;;;;;5072504;28;19931;-76
2021/12/28 08:15:43;;;;;;;;;;;8.60;99.90;;;;;;5072337;28;19978;-75
2021/12/28 08:18:09;;;;;;;;;;;8.70;99.90;;;;;;5072815;28;20017;-75
2021/12/28 08:20:37;;;;;;;;;;;8.70;99.90;;;;;;5072381;28;19932;-75
2021/12/28 08:23:04;;;;;;;;;;;8.60;99.90;;;;;;5072479;28;19934;-75
2021/12/28 08:25:30;;;;;;;;;;;8.60;99.90;;;;;;5072673;28;19928;-76
2021/12/28 08:27:58;;;;;;;;;;;8.60;99.90;;;;;;5073036;28;19930;-75
2021/12/28 08:30:26;;;;;;;;;;;8.70;99.90;;;;;;5072104;28;19924;-75
2021/12/28 08:32:52;;;;;;;;;;;8.70;99.90;;;;;;5072516;28;20293;-76
2021/12/28 08:35:20;;;;;;;;;;;8.70;99.90;;;;;;5072314;28;19930;-74
2021/12/28 08:37:47;;;;;;;;;;;8.70;99.90;;;;;;5072338;28;20286;-76
2021/12/28 08:40:15;;;;;;;;;;;8.70;99.90;;;;;;5071757;28;19925;-76
2021/12/28 08:42:42;;;;;;;;;;;8.70;99.90;;;;;;5071995;28;20448;-74
2021/12/28 08:45:09;;;;;;;;;;;8.70;99.90;;;;;;5072055;28;20366;-75
2021/12/28 08:47:37;;;;;;;;;;;8.70;99.90;;;;;;5071592;28;20380;-73
2021/12/28 08:50:06;;;;;;;;;;;8.70;99.90;;;;;;5071765;28;19924;-75
2021/12/28 08:52:32;;;;;;;;;;;8.80;99.90;;;;;;5061766;28;19924;-75
2021/12/28 08:54:59;;;;;;;;;;;8.90;99.90;;;;;;5070960;28;19928;-74
2021/12/28 08:57:26;;;;;;;;;;;8.90;99.90;;;;;;5072165;28;20433;-74
2021/12/28 08:59:52;;;;;;;;;;;9.00;99.90;;;;;;5071309;28;20361;-74
2021/12/28 09:02:19;;;;;;;;;;;9.10;99.90;;;;;;5071517;28;19924;-75
2021/12/28 09:04:47;;;;;;;;;;;9.10;99.90;;;;;;5071486;28;19935;-72
2021/12/28 09:07:14;;;;;;;;;;;9.20;99.90;;;;;;5071520;28;19931;-74
2021/12/28 09:09:41;;;;;;;;;;;9.20;99.90;;;;;;5071474;28;19925;-74
2021/12/28 09:12:08;;;;;;;;;;;9.30;99.90;;;;;;5071307;28;20029;-75
2021/12/28 09:14:35;;;;;;;;;;;9.30;99.90;;;;;;5071686;28;19924;-75
2021/12/28 09:17:01;;;;;;;;;;;9.30;99.90;;;;;;5071192;28;20412;-74
2021/12/28 09:19:29;;;;;;;;;;;9.30;99.90;;;;;;5071312;28;19924;-74
2021/12/28 09:21:58;;;;;;;;;;;9.40;99.90;;;;;;5070705;28;19928;-74
2021/12/28 09:24:25;;;;;;;;;;;9.50;99.90;;;;;;5071754;28;20301;-73
2021/12/28 09:26:51;;;;;;;;;;;9.40;99.90;;;;;;5071476;28;20267;-74
2021/12/28 09:29:18;;;;;;;;;;;9.50;99.90;;;;;;5071503;28;19924;-74
2021/12/28 09:31:45;;;;;;;;;;;9.50;99.90;;;;;;5071005;28;19925;-73
2021/12/28 09:34:11;;;;;;;;;;;9.50;99.90;;;;;;5071160;28;20453;-73
2021/12/28 09:36:40;;;;;;;;;;;9.50;99.90;;;;;;5071368;28;19925;-73
2021/12/28 09:39:08;;;;;;;;;;;9.50;99.90;;;;;;5071122;28;20031;-74
2021/12/28 09:41:35;;;;;;;;;;;9.50;99.90;;;;;;5071102;28;19925;-73
2021/12/28 09:44:02;;;;;;;;;;;9.50;99.90;;;;;;5071325;28;19930;-74
2021/12/28 09:46:28;;;;;;;;;;;9.60;99.90;;;;;;5071098;28;19999;-75
2021/12/28 09:48:55;;;;;;;;;;;9.60;99.90;;;;;;5071411;28;19924;-75
2021/12/28 09:51:22;;;;;;;;;;;9.70;99.90;;;;;;5071077;28;19925;-74
2021/12/28 09:53:48;;;;;;;;;;;9.70;99.90;;;;;;5071273;28;19925;-74
2021/12/28 09:56:18;;;;;;;;;;;9.80;99.90;;;;;;5071038;28;19931;-75
2021/12/28 09:58:44;;;;;;;;;;;9.80;99.90;;;;;;5071260;28;19932;-75
2021/12/28 10:01:11;;;;;;;;;;;9.80;99.90;;;;;;5070456;28;20129;-74
2021/12/28 10:03:38;;;;;;;;;;;9.80;99.90;;;;;;5071322;28;19947;-75
2021/12/28 10:06:14;;;;;;;;;;;9.80;99.90;;;;;;5070801;28;19930;-74
2021/12/28 10:08:42;;;;;;;;;;;9.80;99.90;;;;;;5057276;28;19931;-74
2021/12/28 10:11:09;;;;;;;;;;;9.90;99.90;;;;;;5070439;28;20007;-76
2021/12/28 10:13:37;;;;;;;;;;;9.90;99.90;;;;;;5070711;28;20439;-75
2021/12/28 10:16:04;;;;;;;;;;;9.90;99.90;;;;;;5071134;28;19929;-75
2021/12/28 10:18:30;;;;;;;;;;;9.90;99.90;;;;;;5072584;28;19925;-74
2021/12/28 10:20:58;;;;;;;;;;;10.00;99.90;;;;;;5074536;28;19951;-75
2021/12/28 10:23:26;;;;;;;;;;;10.20;99.90;;;;;;5074525;28;19924;-74
2021/12/28 10:25:53;;;;;;;;;;;10.40;99.90;;;;;;5074496;28;19935;-74
2021/12/28 10:28:21;;;;;;;;;;;10.50;99.90;;;;;;5074346;28;19932;-73
2021/12/28 10:30:51;;;;;;;;;;;10.70;99.90;;;;;;5074280;28;20030;-74
2021/12/28 10:33:18;;;;;;;;;;;10.70;99.90;;;;;;5074498;28;19929;-74
2021/12/28 10:35:47;;;;;;;;;;;10.80;99.90;;;;;;5074461;28;19924;-74
2021/12/28 10:38:15;;;;;;;;;;;10.90;99.90;;;;;;5074592;28;19946;-74
2021/12/28 10:40:43;;;;;;;;;;;10.90;99.90;;;;;;5073664;28;20408;-73
2021/12/28 10:43:10;;;;;;;;;;;11.00;99.90;;;;;;5074273;28;19935;-75
2021/12/28 10:45:37;;;;;;;;;;;;;;;;;;5074056;28;19931;-74
2021/12/28 10:48:07;;;;;;;;;;;11.20;99.90;;;;;;5074388;28;19931;-75
2021/12/28 10:50:37;;;;;;;;;;;11.40;99.90;;;;;;5073843;28;19924;-74
2021/12/28 10:53:18;;;;;;;;;;;11.60;99.90;;;;;;5074193;28;19932;-74
2021/12/28 10:55:45;;;;;;;;;;;11.70;99.90;;;;;;5074181;28;19938;-74
2021/12/28 10:58:21;;;;;;;;;;;12.00;99.90;;;;;;5074492;28;19930;-75
2021/12/28 11:00:47;;;;;;;;;;;12.40;99.90;;;;;;5073581;28;19951;-73
2021/12/28 11:03:26;;;;;;;;;;;12.40;99.90;;;;;;5074258;28;19925;-74
2021/12/28 11:05:55;;;;;;;;;;;12.20;99.90;;;;;;5074115;28;19928;-75
2021/12/28 11:08:23;;;;;;;;;;;12.10;99.90;;;;;;5074076;28;19924;-74
2021/12/28 11:10:51;;;;;;;;;;;12.00;99.90;;;;;;5068600;28;19928;-74
2021/12/28 11:13:19;;;;;;;;;;;12.00;99.90;;;;;;5073548;28;19935;-74
2021/12/28 11:15:46;;;;;;;;;;;11.80;99.90;;;;;;5073883;28;20034;-73
2021/12/28 11:18:20;;;;;;;;;;;11.80;99.90;;;;;;5073988;28;19924;-73
2021/12/28 11:20:48;;;;;;;;;;;11.80;99.90;;;;;;5073507;28;19931;-73
2021/12/28 11:23:15;;;;;;;;;;;11.80;99.90;;;;;;5062492;28;19924;-73
2021/12/28 11:25:42;;;;;;;;;;;11.80;99.90;;;;;;5073653;28;20006;-73
2021/12/28 11:28:13;;;;;;;;;;;11.80;99.90;;;;;;5073634;28;20023;-73
2021/12/28 11:30:40;;;;;;;;;;;11.80;99.90;;;;;;5071593;28;19925;-77
2021/12/28 11:33:07;;;;;;;;;;;11.80;99.90;;;;;;5073685;28;19946;-76
2021/12/28 11:35:34;;;;;;;;;;;11.80;99.90;;;;;;5073255;28;19976;-76
2021/12/28 11:38:02;;;;;;;;;;;11.60;99.90;;;;;;5073572;28;20011;-75
2021/12/28 11:40:29;;;;;;;;;;;11.40;99.90;;;;;;5072919;28;19925;-76
2021/12/28 11:42:56;;;;;;;;;;;11.30;99.90;;;;;;5073202;28;20352;-77
2021/12/28 11:45:22;;;;;;;;;;;11.20;99.90;;;;;;5073202;28;19925;-76
2021/12/28 11:47:50;;;;;;;;;;;;;;;;;;5073239;28;19928;-76
2021/12/28 11:50:17;;;;;;;;;;;11.10;99.90;;;;;;5073052;28;19924;-76
2021/12/28 11:52:43;;;;;;;;;;;11.10;99.90;;;;;;5072638;28;20015;-77
2021/12/28 11:55:11;;;;;;;;;;;11.10;99.90;;;;;;5073248;28;19930;-76
2021/12/28 11:57:48;;;;;;;;;;;11.10;99.90;;;;;;5072715;28;19928;-76
2021/12/28 12:00:17;;;;;;;;;;;11.20;99.90;;;;;;5072808;28;19931;-77
2021/12/28 12:02:45;;;;;;;;;;;11.10;99.90;;;;;;5072503;28;19925;-75
2021/12/28 12:05:13;;;;;;;;;;;11.10;99.90;;;;;;5072905;28;19925;-75
2021/12/28 12:07:40;;;;;;;;;;;;;;;;;;5072881;28;19924;-76
2021/12/28 12:10:30;;;;;;;;;;;11.10;99.90;;;;;;5072032;28;20275;-75
2021/12/28 12:12:58;;;;;;;;;;;11.10;99.90;;;;;;5072442;28;19931;-75
2021/12/28 12:15:26;;;;;;;;;;;11.10;99.90;;;;;;5072588;28;19954;-75
2021/12/28 12:17:57;;;;;;;;;;;11.10;99.90;;;;;;5072584;28;20026;-76
2021/12/28 12:20:30;;;;;;;;;;;11.10;99.90;;;;;;5072192;28;19924;-75
2021/12/28 12:23:07;;;;;;;;;;;11.20;99.90;;;;;;5072291;28;20463;-75
2021/12/28 12:25:45;;;;;;;;;;;11.10;99.90;;;;;;5072202;28;19925;-75
2021/12/28 12:28:12;;;;;;;;;;;11.00;99.90;;;;;;5072092;28;20404;-75
2021/12/28 12:30:44;;;;;;;;;;;10.90;99.90;;;;;;5071863;28;19928;-75
2021/12/28 12:33:11;;;;;;;;;;;11.00;99.90;;;;;;5072053;28;19924;-73
2021/12/28 12:35:40;;;;;;;;;;;10.90;99.90;;;;;;5072355;28;19928;-72
2021/12/28 12:38:23;;;;;;;;;;;10.90;99.90;;;;;;5066693;28;19931;-73
2021/12/28 12:40:57;;;;;;;;;;;10.90;99.90;;;;;;5071282;28;19925;-74
2021/12/28 12:43:25;;;;;;;;;;;10.90;99.90;;;;;;5071771;28;20377;-75
2021/12/28 12:45:53;;;;;;;;;;;;;;;;;;5071985;28;20405;-75
2021/12/28 12:48:20;;;;;;;;;;;;;;;;;;5071975;28;19925;-74
2021/12/28 12:50:47;;;;;;;;;;;;;;;;;;5071808;28;19925;-74
2021/12/28 12:53:13;;;;;;;;;;;;;;;;;;5071623;28;19931;-74
2021/12/28 12:55:40;;;;;;;;;;;;;;;;;;5071778;28;20079;-74
2021/12/28 12:58:07;;;;;;;;;;;;;;;;;;5071829;28;20019;-73
2021/12/28 13:00:34;;;;;;;;;;;;;;;;;;5072382;28;19924;-74
2021/12/28 13:03:01;;;;;;;;;;;;;;;;;;5072516;28;19933;-74
2021/12/28 13:05:30;;;;;;;;;;;;;;;;;;5071567;28;19928;-74
2021/12/28 13:07:57;;;;;;;;;;;;;;;;;;5071940;28;19929;-73
2021/12/28 13:10:26;;;;;;;;;;;;;;;;;;5070996;28;19924;-74
2021/12/28 13:12:55;;;;;;;;;;;;;;;;;;5071403;28;19935;-74
2021/12/28 13:15:23;;;;;;;;;;;;;;;;;;5060819;28;20293;-73
2021/12/28 13:17:50;;;;;;;;;;;;;;;;;;5071732;28;19925;-73
2021/12/28 13:20:17;;;;;;;;;;;;;;;;;;5071087;28;20027;-74
2021/12/28 13:22:45;;;;;;;;;;;;;;;;;;5071357;28;19931;-73
2021/12/28 13:25:12;;;;;;;;;;;;;;;;;;5071375;28;19925;-74
2021/12/28 13:27:39;;;;;;;;;;;;;;;;;;5071777;28;20325;-73
2021/12/28 13:30:05;;;;;;;;;;;;;;;;;;5071332;28;19924;-75
2021/12/28 13:32:34;;;;;;;;;;;;;;;;;;5071194;28;19930;-73
2021/12/28 13:35:01;;;;;;;;;;;;;;;;;;5060762;28;19925;-73
2021/12/28 13:37:28;;;;;;;;;;;;;;;;;;5071627;28;19924;-75
2021/12/28 13:39:55;;;;;;;;;;;;;;;;;;5070774;28;19925;-72
2021/12/28 13:42:22;;;;;;;;;;;;;;;;;;5071591;28;19947;-73
2021/12/28 13:44:49;;;;;;;;;;;;;;;;;;5054796;28;19935;-72
2021/12/28 13:47:19;;;;;;;;;;;;;;;;;;5071398;28;19947;-73
2021/12/28 13:49:46;;;;;;;;;;;;;;;;;;5071413;28;20449;-73
2021/12/28 13:52:13;;;;;;;;;;;;;;;;;;5062453;28;20488;-74
2021/12/28 13:54:40;;;;;;;;;;;;;;;;;;5061223;28;20300;-73
2021/12/28 13:57:09;;;;;;;;;;;;;;;;;;5075212;28;20400;-73
2021/12/28 13:59:36;;;;;;;;;;;;;;;;;;5075192;28;19924;-74
2021/12/28 14:02:03;;;;;;;;;;;;;;;;;;5074806;28;19924;-74
2021/12/28 14:04:31;;;;;;;;;;;;;;;;;;5075100;28;19964;-73
2021/12/28 14:06:58;;;;;;;;;;;;;;;;;;5074747;28;19928;-73
2021/12/28 14:09:25;;;;;;;;;;;;;;;;;;5074916;28;19925;-74
2021/12/28 14:11:53;;;;;;;;;;;;;;;;;;5074621;28;19925;-73
2021/12/28 14:14:20;;;;;;;;;;;;;;;;;;5070219;28;20015;-73
2021/12/28 14:16:47;;;;;;;;;;;;;;;;;;5074730;28;19924;-74
2021/12/28 14:19:14;;;;;;;;;;;;;;;;;;5074970;28;19924;-73
2021/12/28 14:21:41;;;;;;;;;;;;;;;;;;5074291;28;20386;-74
2021/12/28 14:24:08;;;;;;;;;;;;;;;;;;5074730;28;19930;-73
2021/12/28 14:26:35;;;;;;;;;;;;;;;;;;5074776;28;19930;-73
2021/12/28 14:29:02;;;;;;;;;;;;;;;;;;5074618;28;19932;-74
2021/12/28 14:31:29;;;;;;;;;;;;;;;;;;5074408;28;20461;-74
2021/12/28 14:33:56;;;;;;;;;;;;;;;;;;5074472;28;19963;-74
2021/12/28 14:36:23;;;;;;;;;;;;;;;;;;5074670;28;19925;-74
2021/12/28 14:38:50;;;;;;;;;;;;;;;;;;5074885;28;19924;-74
2021/12/28 14:41:17;;;;;;;;;;;;;;;;;;5074020;28;19931;-74
2021/12/28 14:43:44;;;;;;;;;;;;;;;;;;5074428;28;19946;-74
2021/12/28 14:46:11;;;;;;;;;;;;;;;;;;5074241;28;20011;-74
2021/12/28 14:48:38;;;;;;;;;;;;;;;;;;5074204;28;19932;-73
2021/12/28 14:51:05;;;;;;;;;;;;;;;;;;5073839;28;19933;-73
2021/12/28 14:53:32;;;;;;;;;;;;;;;;;;5074414;28;20003;-74
2021/12/28 14:55:59;;;;;;;;;;;;;;;;;;5074076;28;20039;-73
2021/12/28 14:58:28;;;;;;;;;;;;;;;;;;5074285;28;19932;-74
2021/12/28 15:00:57;;;;;;;;;;;;;;;;;;5068922;28;19924;-73
2021/12/28 15:03:24;;;;;;;;;;;;;;;;;;5073943;28;20024;-74
2021/12/28 15:05:55;;;;;;;;;;;;;;;;;;5074080;28;19924;-74
2021/12/28 15:08:22;;;;;;;;;;;;;;;;;;5072388;28;19924;-74
2021/12/28 15:10:49;;;;;;;;;;;;;;;;;;5073523;28;20316;-75
2021/12/28 15:13:16;;;;;;;;;;;;;;;;;;5073499;28;19931;-75
2021/12/28 15:15:42;;;;;;;;;;;;;;;;;;5073648;28;19924;-75
2021/12/28 15:18:09;;;;;;;;;;;;;;;;;;5073892;28;19946;-74
2021/12/28 15:20:36;;;;;;;;;;;;;;;;;;5073094;28;19931;-74
2021/12/28 15:23:03;;;;;;;;;;;;;;;;;;5073881;28;19930;-75